createdAt,value
2023-05-03T00:01:35.667Z,95.70
2023-05-03T00:06:37.504Z,95.70
2023-05-03T00:11:39.456Z,95.80
2023-05-03T00:16:41.497Z,95.60
2023-05-03T00:21:43.304Z,95.40
2023-05-03T00:26:45.054Z,95.50
2023-05-03T00:31:46.884Z,96.10
2023-05-03T00:36:48.683Z,95.90
2023-05-03T00:41:50.567Z,95.60
2023-05-03T00:46:52.893Z,96.10
2023-05-03T00:51:55.085Z,96.40
2023-05-03T00:56:57.464Z,96.00
2023-05-03T01:01:59.337Z,96.20
2023-05-03T01:07:29.282Z,96.40
2023-05-03T01:12:48.026Z,96.20
2023-05-03T01:17:58.658Z,95.60
2023-05-03T01:23:05.294Z,95.30
2023-05-03T01:28:07.253Z,95.20
2023-05-03T01:33:16.537Z,95.20
2023-05-03T01:38:19.025Z,95.20
2023-05-03T01:43:21.440Z,95.20
2023-05-03T01:48:23.205Z,94.80
2023-05-03T01:53:24.948Z,94.80
2023-05-03T01:58:26.687Z,95.20
2023-05-03T02:03:29.445Z,95.30
2023-05-03T02:08:31.144Z,95.30
2023-05-03T02:13:33.196Z,95.20
2023-05-03T02:18:35.634Z,95.10
2023-05-03T02:23:37.391Z,95.60
2023-05-03T02:28:39.138Z,95.40
2023-05-03T02:33:41.320Z,95.50
2023-05-03T02:38:43.060Z,96.00
2023-05-03T02:43:44.761Z,96.10
2023-05-03T02:48:46.449Z,96.30
2023-05-03T02:53:48.225Z,95.80
2023-05-03T02:58:49.952Z,96.40
2023-05-03T03:03:52.133Z,97.00
2023-05-03T03:08:54.069Z,97.40
2023-05-03T03:13:55.878Z,96.80
2023-05-03T03:18:57.636Z,96.70
2023-05-03T03:23:59.349Z,96.30
2023-05-03T03:29:01.335Z,95.70
2023-05-03T03:34:03.075Z,92.60
2023-05-03T03:39:05.559Z,88.20
2023-05-03T03:44:07.340Z,85.00
2023-05-03T03:49:09.102Z,84.10
2023-05-03T03:54:10.855Z,81.00
2023-05-03T03:59:12.729Z,83.80
2023-05-03T04:04:14.525Z,86.60
2023-05-03T04:09:17.683Z,89.80
2023-05-03T04:14:19.676Z,90.80
2023-05-03T04:19:22.114Z,91.30
2023-05-03T04:24:24.019Z,91.60
2023-05-03T04:29:25.799Z,91.80
2023-05-03T04:34:27.492Z,91.60
2023-05-03T04:39:29.285Z,91.80
2023-05-03T04:44:30.991Z,91.80
2023-05-03T04:49:34.455Z,91.40
2023-05-03T04:54:36.562Z,90.90
2023-05-03T04:59:38.266Z,90.20
2023-05-03T05:04:40.049Z,89.60
2023-05-03T05:09:41.809Z,89.40
2023-05-03T05:14:43.641Z,86.50
2023-05-03T05:19:45.689Z,85.40
2023-05-03T05:24:47.712Z,85.10
2023-05-03T05:29:49.414Z,83.80
2023-05-03T05:34:55.610Z,84.60
2023-05-03T05:39:57.441Z,75.30
2023-05-03T05:44:59.296Z,75.10
2023-05-03T05:50:01.223Z,68.70
2023-05-03T05:55:03.162Z,60.70
2023-05-03T06:00:14.708Z,59.80
2023-05-03T06:05:16.669Z,57.70
2023-05-03T06:10:18.497Z,57.30
2023-05-03T06:15:20.396Z,58.50
2023-05-03T06:20:24.225Z,58.90
2023-05-03T06:25:26.148Z,63.60
2023-05-03T06:30:28.646Z,65.20
2023-05-03T06:35:32.480Z,62.70
2023-05-03T06:40:36.537Z,53.80
2023-05-03T06:45:43.860Z,34.70
2023-05-03T06:50:45.750Z,41.50
2023-05-03T06:55:47.509Z,41.60
2023-05-03T07:00:53.961Z,43.10
2023-05-03T07:05:55.714Z,36.70
2023-05-03T07:10:58.036Z,33.50
2023-05-03T07:16:03.362Z,37.80
2023-05-03T07:21:08.061Z,44.00
2023-05-03T07:26:11.242Z,48.00
2023-05-03T07:31:13.050Z,48.10
2023-05-03T07:36:14.906Z,47.60
2023-05-03T07:41:16.864Z,48.30
2023-05-03T07:46:18.825Z,45.50
2023-05-03T07:51:21.100Z,33.70
2023-05-03T07:56:23.814Z,29.40
2023-05-03T08:01:26.342Z,26.90
2023-05-03T08:06:28.359Z,27.60
2023-05-03T08:11:30.397Z,29.70
2023-05-03T08:16:32.662Z,38.20
2023-05-03T08:21:35.581Z,40.90
2023-05-03T08:26:37.786Z,44.40
2023-05-03T08:31:39.869Z,44.70
2023-05-03T08:36:41.715Z,35.40
2023-05-03T08:41:43.565Z,29.70
2023-05-03T08:46:45.377Z,28.10
2023-05-03T08:51:48.456Z,27.60
2023-05-03T08:56:51.005Z,31.60
2023-05-03T09:01:54.937Z,36.80
2023-05-03T09:07:08.501Z,39.20
2023-05-03T09:12:10.248Z,39.30
2023-05-03T09:17:17.240Z,36.00
2023-05-03T09:22:19.629Z,30.40
2023-05-03T09:27:22.004Z,36.10
2023-05-03T09:32:25.125Z,39.70
2023-05-03T09:37:38.609Z,40.40
2023-05-03T09:42:46.208Z,41.10
2023-05-03T09:47:52.574Z,34.90
2023-05-03T09:52:57.530Z,30.00
2023-05-03T09:57:59.996Z,29.00
2023-05-03T10:03:06.606Z,21.90
2023-05-03T10:08:11.463Z,20.30
2023-05-03T10:13:14.406Z,25.90
2023-05-03T10:18:21.058Z,30.90
2023-05-03T10:23:23.232Z,34.20
2023-05-03T10:28:24.938Z,37.70
2023-05-03T10:33:32.132Z,39.80
2023-05-03T10:38:33.907Z,41.40
2023-05-03T10:43:35.892Z,43.10
2023-05-03T10:48:37.837Z,44.30
2023-05-03T10:53:41.318Z,48.20
2023-05-03T10:58:45.334Z,52.10
2023-05-03T11:03:53.555Z,51.40
2023-05-03T11:08:55.374Z,50.80
2023-05-03T11:13:57.900Z,51.50
2023-05-03T11:19:03.049Z,48.30
2023-05-03T11:24:05.364Z,46.20
2023-05-03T11:29:10.530Z,43.20
2023-05-03T11:34:13.380Z,43.10
2023-05-03T11:39:15.433Z,43.60
2023-05-03T11:44:18.498Z,41.60
2023-05-03T11:49:20.896Z,41.30
2023-05-03T11:54:26.929Z,41.50
2023-05-03T11:59:38.622Z,43.70
2023-05-03T12:04:43.253Z,45.10
2023-05-03T12:09:52.466Z,45.70
2023-05-03T12:14:59.870Z,45.50
2023-05-03T12:25:32.605Z,41.80
2023-05-03T12:30:35.690Z,41.40
2023-05-03T12:35:40.224Z,44.50
2023-05-03T12:40:42.843Z,45.50
2023-05-03T12:45:52.210Z,47.70
2023-05-03T12:51:17.654Z,49.10
2023-05-03T12:56:25.022Z,49.00
2023-05-03T13:06:41.193Z,50.80
2023-05-03T13:11:45.685Z,50.80
2023-05-03T13:16:52.158Z,51.80
2023-05-03T13:21:54.567Z,50.00
2023-05-03T13:26:56.305Z,50.30
2023-05-03T13:31:58.134Z,50.00
2023-05-03T13:37:00.310Z,50.00
2023-05-03T13:42:03.443Z,53.10
2023-05-03T13:47:05.333Z,53.20
2023-05-03T13:52:07.047Z,54.80
2023-05-03T13:57:09.018Z,55.10
2023-05-03T14:02:10.808Z,54.20
2023-05-03T14:07:12.558Z,53.00
2023-05-03T14:12:14.464Z,51.80
2023-05-03T14:17:17.145Z,53.30
2023-05-03T14:22:19.070Z,55.30
2023-05-03T14:27:21.980Z,56.20
2023-05-03T14:32:24.470Z,54.80
2023-05-03T14:37:26.444Z,53.60
2023-05-03T14:42:32.097Z,54.60
2023-05-03T14:47:34.448Z,54.50
2023-05-03T14:52:37.945Z,53.30
2023-05-03T14:57:39.747Z,52.20
2023-05-03T15:02:42.202Z,51.90
2023-05-03T15:07:44.033Z,52.40
2023-05-03T15:12:45.871Z,50.90
2023-05-03T15:17:47.952Z,51.40
2023-05-03T15:22:49.888Z,51.10
2023-05-03T15:27:52.567Z,52.10
2023-05-03T15:32:54.469Z,52.90
2023-05-03T15:37:56.443Z,53.90
2023-05-03T15:42:58.179Z,52.60
2023-05-03T15:48:00.186Z,51.40
2023-05-03T15:53:02.135Z,51.90
2023-05-03T15:58:03.995Z,50.90
2023-05-03T16:03:05.924Z,50.90
2023-05-03T16:08:08.336Z,50.60
2023-05-03T16:13:11.623Z,52.10
2023-05-03T16:18:13.506Z,53.00
2023-05-03T16:23:16.018Z,53.00
2023-05-03T16:28:17.907Z,52.40
2023-05-03T16:33:20.372Z,53.50
2023-05-03T16:38:22.184Z,54.30
2023-05-03T16:43:24.147Z,54.50
2023-05-03T16:48:35.083Z,55.20
2023-05-03T16:53:36.853Z,55.80
2023-05-03T16:58:38.616Z,56.40
2023-05-03T17:03:41.520Z,57.10
2023-05-03T17:08:43.342Z,57.20
2023-05-03T17:13:45.158Z,57.90
2023-05-03T17:18:47.793Z,57.90
2023-05-03T17:23:49.997Z,58.10
2023-05-03T17:28:52.275Z,58.20
2023-05-03T17:33:54.190Z,58.90
2023-05-03T17:38:56.180Z,60.20
2023-05-03T17:43:57.952Z,63.50
2023-05-03T17:48:59.853Z,66.30
2023-05-03T17:54:01.618Z,66.20
2023-05-03T17:59:03.828Z,67.30
2023-05-03T18:04:05.722Z,70.40
2023-05-03T18:09:08.086Z,72.00
2023-05-03T18:14:09.774Z,71.70
2023-05-03T18:19:12.595Z,72.80
2023-05-03T18:24:15.807Z,75.90
2023-05-03T18:29:17.616Z,74.90
2023-05-03T18:34:19.546Z,75.10
2023-05-03T18:39:22.795Z,78.40
2023-05-03T18:44:25.841Z,78.80
2023-05-03T18:49:27.920Z,79.40
2023-05-03T18:54:29.911Z,79.40
2023-05-03T18:59:31.686Z,81.60
2023-05-03T19:04:33.801Z,81.50
2023-05-03T19:09:36.727Z,80.60
2023-05-03T19:14:41.022Z,81.70
2023-05-03T19:19:42.819Z,82.60
2023-05-03T19:24:44.822Z,83.90
2023-05-03T19:29:46.673Z,85.00
2023-05-03T19:34:48.522Z,86.30
2023-05-03T19:39:50.749Z,86.30
2023-05-03T19:44:52.717Z,86.80
2023-05-03T19:49:54.731Z,88.00
2023-05-03T19:54:57.301Z,88.50
2023-05-03T19:59:59.031Z,88.40
2023-05-03T20:05:00.830Z,88.40
2023-05-03T20:10:02.947Z,88.60
2023-05-03T20:15:05.458Z,88.90
2023-05-03T20:20:11.246Z,90.10
2023-05-03T20:25:13.225Z,89.50
2023-05-03T20:30:15.108Z,88.90
2023-05-03T20:35:18.027Z,87.50
2023-05-03T20:40:19.854Z,87.10
2023-05-03T20:45:22.238Z,87.30
2023-05-03T20:50:23.991Z,88.60
2023-05-03T20:55:25.942Z,90.30
2023-05-03T21:00:27.765Z,90.50
2023-05-03T21:05:29.477Z,90.80
2023-05-03T21:10:31.352Z,91.50
2023-05-03T21:15:33.071Z,91.40
2023-05-03T21:20:36.773Z,91.70
2023-05-03T21:25:38.605Z,92.40
2023-05-03T21:30:42.229Z,93.20
2023-05-03T21:35:43.980Z,93.70
2023-05-03T21:40:47.130Z,94.10
2023-05-03T21:45:48.963Z,94.00
2023-05-03T21:50:54.142Z,94.10
2023-05-03T21:55:56.133Z,94.70
2023-05-03T22:00:57.832Z,95.30
2023-05-03T22:05:59.609Z,95.30
2023-05-03T22:11:05.111Z,95.50
2023-05-03T22:16:08.026Z,95.60
2023-05-03T22:21:09.800Z,96.00
2023-05-03T22:26:11.734Z,96.60
2023-05-03T22:31:13.682Z,97.10
2023-05-03T22:36:15.543Z,97.30
2023-05-03T22:41:17.256Z,97.40
2023-05-03T22:46:19.217Z,97.60
2023-05-03T22:51:21.409Z,97.90
2023-05-03T22:56:23.189Z,98.40
2023-05-03T23:01:26.956Z,98.70
2023-05-03T23:06:28.883Z,99.30
2023-05-03T23:11:30.724Z,99.10
2023-05-03T23:16:32.732Z,99.40
2023-05-03T23:21:34.515Z,99.10
2023-05-03T23:26:36.352Z,98.90
2023-05-03T23:31:38.720Z,99.10
2023-05-03T23:36:41.038Z,99.20
2023-05-03T23:41:42.895Z,99.10
2023-05-03T23:46:44.638Z,99.50
2023-05-03T23:51:46.664Z,99.80
2023-05-03T23:56:48.398Z,99.60
